sensor_id;sensor_type;location;lat;lon;timestamp;P1;durP1;ratioP1;P2;durP2;ratioP2
53833;SDS011;39735;51.432;5.482;2022-08-19T00:00:07;16.13;;;10.93;;
53833;SDS011;39735;51.432;5.482;2022-08-19T00:02:34;11.40;;;10.45;;
53833;SDS011;39735;51.432;5.482;2022-08-19T00:05:00;12.50;;;11.20;;
53833;SDS011;39735;51.432;5.482;2022-08-19T00:07:26;13.32;;;11.57;;
53833;SDS011;39735;51.432;5.482;2022-08-19T00:09:51;14.90;;;11.13;;
53833;SDS011;39735;51.432;5.482;2022-08-19T00:12:16;21.85;;;11.07;;
53833;SDS011;39735;51.432;5.482;2022-08-19T00:14:42;13.95;;;10.55;;
53833;SDS011;39735;51.432;5.482;2022-08-19T00:17:08;15.35;;;12.38;;
53833;SDS011;39735;51.432;5.482;2022-08-19T00:19:34;13.60;;;11.68;;
53833;SDS011;39735;51.432;5.482;2022-08-19T00:22:03;14.05;;;12.65;;
53833;SDS011;39735;51.432;5.482;2022-08-19T00:24:30;15.60;;;13.55;;
53833;SDS011;39735;51.432;5.482;2022-08-19T00:26:56;14.75;;;13.35;;
53833;SDS011;39735;51.432;5.482;2022-08-19T00:29:23;28.58;;;13.32;;
53833;SDS011;39735;51.432;5.482;2022-08-19T00:31:49;14.82;;;12.52;;
53833;SDS011;39735;51.432;5.482;2022-08-19T00:34:18;18.50;;;14.50;;
53833;SDS011;39735;51.432;5.482;2022-08-19T00:36:43;16.23;;;14.52;;
53833;SDS011;39735;51.432;5.482;2022-08-19T00:39:10;15.48;;;13.30;;
53833;SDS011;39735;51.432;5.482;2022-08-19T00:41:36;20.42;;;14.52;;
53833;SDS011;39735;51.432;5.482;2022-08-19T00:44:03;33.83;;;16.15;;
53833;SDS011;39735;51.432;5.482;2022-08-19T00:46:32;19.15;;;14.80;;
53833;SDS011;39735;51.432;5.482;2022-08-19T00:49:02;24.70;;;15.93;;
53833;SDS011;39735;51.432;5.482;2022-08-19T00:51:31;21.42;;;18.73;;
53833;SDS011;39735;51.432;5.482;2022-08-19T00:53:57;22.48;;;17.63;;
53833;SDS011;39735;51.432;5.482;2022-08-19T00:56:23;23.27;;;15.93;;
53833;SDS011;39735;51.432;5.482;2022-08-19T00:58:51;21.85;;;16.88;;
53833;SDS011;39735;51.432;5.482;2022-08-19T01:01:16;19.45;;;17.40;;
53833;SDS011;39735;51.432;5.482;2022-08-19T01:03:41;22.73;;;20.02;;
53833;SDS011;39735;51.432;5.482;2022-08-19T01:06:07;56.38;;;20.83;;
53833;SDS011;39735;51.432;5.482;2022-08-19T01:08:33;30.15;;;20.30;;
53833;SDS011;39735;51.432;5.482;2022-08-19T01:10:58;33.70;;;20.65;;
53833;SDS011;39735;51.432;5.482;2022-08-19T01:13:29;33.45;;;23.75;;
53833;SDS011;39735;51.432;5.482;2022-08-19T01:15:57;38.38;;;27.75;;
53833;SDS011;39735;51.432;5.482;2022-08-19T01:18:26;36.17;;;24.00;;
53833;SDS011;39735;51.432;5.482;2022-08-19T01:20:53;28.95;;;22.73;;
53833;SDS011;39735;51.432;5.482;2022-08-19T01:23:19;27.20;;;22.08;;
53833;SDS011;39735;51.432;5.482;2022-08-19T01:25:47;46.08;;;24.20;;
53833;SDS011;39735;51.432;5.482;2022-08-19T01:28:25;51.25;;;24.05;;
53833;SDS011;39735;51.432;5.482;2022-08-19T01:30:52;34.15;;;23.05;;
53833;SDS011;39735;51.432;5.482;2022-08-19T01:33:19;29.42;;;23.67;;
53833;SDS011;39735;51.432;5.482;2022-08-19T01:35:45;33.45;;;23.80;;
53833;SDS011;39735;51.432;5.482;2022-08-19T01:38:19;30.20;;;22.77;;
53833;SDS011;39735;51.432;5.482;2022-08-19T01:40:55;30.80;;;23.63;;
53833;SDS011;39735;51.432;5.482;2022-08-19T01:43:20;29.50;;;23.55;;
53833;SDS011;39735;51.432;5.482;2022-08-19T01:45:45;30.92;;;21.58;;
53833;SDS011;39735;51.432;5.482;2022-08-19T01:48:11;44.55;;;21.77;;
53833;SDS011;39735;51.432;5.482;2022-08-19T01:50:37;34.15;;;22.77;;
53833;SDS011;39735;51.432;5.482;2022-08-19T01:53:03;29.05;;;23.05;;
53833;SDS011;39735;51.432;5.482;2022-08-19T01:55:30;39.72;;;23.58;;
53833;SDS011;39735;51.432;5.482;2022-08-19T01:57:58;29.42;;;22.70;;
53833;SDS011;39735;51.432;5.482;2022-08-19T02:00:25;29.17;;;21.38;;
53833;SDS011;39735;51.432;5.482;2022-08-19T02:02:53;32.30;;;22.45;;
53833;SDS011;39735;51.432;5.482;2022-08-19T02:05:19;30.73;;;22.90;;
53833;SDS011;39735;51.432;5.482;2022-08-19T02:07:46;28.77;;;23.05;;
53833;SDS011;39735;51.432;5.482;2022-08-19T02:10:13;34.95;;;23.90;;
53833;SDS011;39735;51.432;5.482;2022-08-19T02:12:39;30.77;;;25.20;;
53833;SDS011;39735;51.432;5.482;2022-08-19T02:15:06;43.55;;;26.90;;
53833;SDS011;39735;51.432;5.482;2022-08-19T02:17:32;43.83;;;24.70;;
53833;SDS011;39735;51.432;5.482;2022-08-19T02:19:58;37.90;;;25.58;;
53833;SDS011;39735;51.432;5.482;2022-08-19T02:22:24;37.47;;;23.05;;
53833;SDS011;39735;51.432;5.482;2022-08-19T02:24:53;36.92;;;24.63;;
53833;SDS011;39735;51.432;5.482;2022-08-19T02:27:19;37.85;;;26.77;;
53833;SDS011;39735;51.432;5.482;2022-08-19T02:29:46;42.60;;;26.13;;
53833;SDS011;39735;51.432;5.482;2022-08-19T02:32:12;37.78;;;25.30;;
53833;SDS011;39735;51.432;5.482;2022-08-19T02:34:38;50.20;;;24.88;;
53833;SDS011;39735;51.432;5.482;2022-08-19T02:37:04;38.15;;;24.13;;
53833;SDS011;39735;51.432;5.482;2022-08-19T02:39:29;44.17;;;25.42;;
53833;SDS011;39735;51.432;5.482;2022-08-19T02:41:55;42.58;;;24.98;;
53833;SDS011;39735;51.432;5.482;2022-08-19T02:44:20;49.95;;;26.25;;
53833;SDS011;39735;51.432;5.482;2022-08-19T02:46:46;32.33;;;25.73;;
53833;SDS011;39735;51.432;5.482;2022-08-19T02:49:12;36.20;;;23.48;;
53833;SDS011;39735;51.432;5.482;2022-08-19T02:51:41;43.33;;;25.77;;
53833;SDS011;39735;51.432;5.482;2022-08-19T02:54:09;59.03;;;28.23;;
53833;SDS011;39735;51.432;5.482;2022-08-19T02:56:35;27.33;;;23.23;;
53833;SDS011;39735;51.432;5.482;2022-08-19T02:59:02;41.10;;;25.98;;
53833;SDS011;39735;51.432;5.482;2022-08-19T03:01:32;38.28;;;26.52;;
53833;SDS011;39735;51.432;5.482;2022-08-19T03:04:05;35.75;;;25.35;;
53833;SDS011;39735;51.432;5.482;2022-08-19T03:06:30;34.80;;;27.35;;
53833;SDS011;39735;51.432;5.482;2022-08-19T03:08:56;46.70;;;29.13;;
53833;SDS011;39735;51.432;5.482;2022-08-19T03:11:24;38.53;;;29.05;;
53833;SDS011;39735;51.432;5.482;2022-08-19T03:13:54;50.65;;;30.48;;
53833;SDS011;39735;51.432;5.482;2022-08-19T03:16:20;45.20;;;31.77;;
53833;SDS011;39735;51.432;5.482;2022-08-19T03:18:46;45.10;;;32.83;;
53833;SDS011;39735;51.432;5.482;2022-08-19T03:21:19;47.47;;;31.45;;
53833;SDS011;39735;51.432;5.482;2022-08-19T03:23:46;48.95;;;34.97;;
53833;SDS011;39735;51.432;5.482;2022-08-19T03:26:11;47.38;;;34.03;;
53833;SDS011;39735;51.432;5.482;2022-08-19T03:28:39;46.45;;;33.10;;
53833;SDS011;39735;51.432;5.482;2022-08-19T03:31:16;43.30;;;34.08;;
53833;SDS011;39735;51.432;5.482;2022-08-19T03:33:44;41.53;;;33.97;;
53833;SDS011;39735;51.432;5.482;2022-08-19T03:36:14;49.25;;;36.33;;
53833;SDS011;39735;51.432;5.482;2022-08-19T03:38:43;54.40;;;34.70;;
53833;SDS011;39735;51.432;5.482;2022-08-19T03:41:11;74.85;;;35.95;;
53833;SDS011;39735;51.432;5.482;2022-08-19T03:43:39;54.47;;;36.25;;
53833;SDS011;39735;51.432;5.482;2022-08-19T03:46:07;47.33;;;34.72;;
53833;SDS011;39735;51.432;5.482;2022-08-19T03:48:35;47.58;;;38.38;;
53833;SDS011;39735;51.432;5.482;2022-08-19T03:51:02;50.92;;;37.33;;
53833;SDS011;39735;51.432;5.482;2022-08-19T03:53:28;46.83;;;36.15;;
53833;SDS011;39735;51.432;5.482;2022-08-19T03:55:55;49.40;;;38.95;;
53833;SDS011;39735;51.432;5.482;2022-08-19T03:58:21;47.65;;;37.22;;
53833;SDS011;39735;51.432;5.482;2022-08-19T04:00:47;52.53;;;37.50;;
53833;SDS011;39735;51.432;5.482;2022-08-19T04:03:13;54.47;;;37.38;;
53833;SDS011;39735;51.432;5.482;2022-08-19T04:05:38;49.70;;;38.17;;
53833;SDS011;39735;51.432;5.482;2022-08-19T04:08:04;62.10;;;39.33;;
53833;SDS011;39735;51.432;5.482;2022-08-19T04:10:30;63.22;;;40.70;;
53833;SDS011;39735;51.432;5.482;2022-08-19T04:13:00;58.90;;;42.05;;
53833;SDS011;39735;51.432;5.482;2022-08-19T04:15:25;63.72;;;41.88;;
53833;SDS011;39735;51.432;5.482;2022-08-19T04:17:50;62.78;;;44.17;;
53833;SDS011;39735;51.432;5.482;2022-08-19T04:20:16;68.68;;;45.10;;
53833;SDS011;39735;51.432;5.482;2022-08-19T04:22:42;63.15;;;43.33;;
53833;SDS011;39735;51.432;5.482;2022-08-19T04:25:07;89.97;;;46.13;;
53833;SDS011;39735;51.432;5.482;2022-08-19T04:27:36;73.20;;;45.88;;
53833;SDS011;39735;51.432;5.482;2022-08-19T04:30:02;56.40;;;43.88;;
53833;SDS011;39735;51.432;5.482;2022-08-19T04:32:28;72.28;;;45.85;;
53833;SDS011;39735;51.432;5.482;2022-08-19T04:34:53;75.25;;;47.05;;
53833;SDS011;39735;51.432;5.482;2022-08-19T04:37:21;72.03;;;47.90;;
53833;SDS011;39735;51.432;5.482;2022-08-19T04:39:48;69.55;;;46.58;;
53833;SDS011;39735;51.432;5.482;2022-08-19T04:45:10;79.35;;;51.45;;
53833;SDS011;39735;51.432;5.482;2022-08-19T04:47:38;82.85;;;49.13;;
53833;SDS011;39735;51.432;5.482;2022-08-19T04:50:05;66.72;;;46.67;;
53833;SDS011;39735;51.432;5.482;2022-08-19T04:52:32;76.95;;;50.25;;
53833;SDS011;39735;51.432;5.482;2022-08-19T04:54:58;80.05;;;50.38;;
53833;SDS011;39735;51.432;5.482;2022-08-19T04:57:24;76.75;;;50.35;;
53833;SDS011;39735;51.432;5.482;2022-08-19T04:59:53;75.88;;;51.40;;
53833;SDS011;39735;51.432;5.482;2022-08-19T05:02:19;86.45;;;49.85;;
53833;SDS011;39735;51.432;5.482;2022-08-19T05:04:45;79.53;;;49.55;;
53833;SDS011;39735;51.432;5.482;2022-08-19T05:07:10;74.07;;;49.53;;
53833;SDS011;39735;51.432;5.482;2022-08-19T05:09:36;86.07;;;52.95;;
53833;SDS011;39735;51.432;5.482;2022-08-19T05:12:02;77.60;;;50.63;;
53833;SDS011;39735;51.432;5.482;2022-08-19T05:14:27;76.07;;;51.42;;
53833;SDS011;39735;51.432;5.482;2022-08-19T05:16:54;70.18;;;49.55;;
53833;SDS011;39735;51.432;5.482;2022-08-19T05:19:19;74.13;;;48.53;;
53833;SDS011;39735;51.432;5.482;2022-08-19T05:22:03;75.65;;;49.53;;
53833;SDS011;39735;51.432;5.482;2022-08-19T05:24:47;75.88;;;49.83;;
53833;SDS011;39735;51.432;5.482;2022-08-19T05:27:13;76.20;;;50.72;;
53833;SDS011;39735;51.432;5.482;2022-08-19T05:29:39;77.47;;;51.92;;
53833;SDS011;39735;51.432;5.482;2022-08-19T05:32:04;71.97;;;48.67;;
53833;SDS011;39735;51.432;5.482;2022-08-19T05:34:33;81.72;;;52.03;;
53833;SDS011;39735;51.432;5.482;2022-08-19T05:37:01;92.50;;;53.80;;
53833;SDS011;39735;51.432;5.482;2022-08-19T05:39:28;82.88;;;55.47;;
53833;SDS011;39735;51.432;5.482;2022-08-19T05:41:56;96.95;;;59.38;;
53833;SDS011;39735;51.432;5.482;2022-08-19T05:44:28;86.68;;;53.08;;
53833;SDS011;39735;51.432;5.482;2022-08-19T05:46:56;97.38;;;55.58;;
53833;SDS011;39735;51.432;5.482;2022-08-19T05:49:22;85.30;;;55.47;;
53833;SDS011;39735;51.432;5.482;2022-08-19T05:51:48;96.72;;;54.28;;
53833;SDS011;39735;51.432;5.482;2022-08-19T05:54:14;110.15;;;56.50;;
53833;SDS011;39735;51.432;5.482;2022-08-19T05:56:40;90.60;;;55.30;;
53833;SDS011;39735;51.432;5.482;2022-08-19T05:59:07;88.63;;;54.38;;
53833;SDS011;39735;51.432;5.482;2022-08-19T06:01:37;88.70;;;55.45;;
53833;SDS011;39735;51.432;5.482;2022-08-19T06:04:04;88.55;;;54.33;;
53833;SDS011;39735;51.432;5.482;2022-08-19T06:06:31;86.82;;;54.13;;
53833;SDS011;39735;51.432;5.482;2022-08-19T06:08:58;85.50;;;54.03;;
53833;SDS011;39735;51.432;5.482;2022-08-19T06:11:32;89.43;;;53.92;;
53833;SDS011;39735;51.432;5.482;2022-08-19T06:14:03;94.70;;;53.28;;
53833;SDS011;39735;51.432;5.482;2022-08-19T06:16:33;98.90;;;53.20;;
53833;SDS011;39735;51.432;5.482;2022-08-19T06:19:00;93.55;;;53.42;;
53833;SDS011;39735;51.432;5.482;2022-08-19T06:21:27;99.40;;;56.42;;
53833;SDS011;39735;51.432;5.482;2022-08-19T06:23:53;92.25;;;53.35;;
53833;SDS011;39735;51.432;5.482;2022-08-19T06:26:20;86.88;;;55.20;;
53833;SDS011;39735;51.432;5.482;2022-08-19T06:28:47;86.28;;;52.92;;
53833;SDS011;39735;51.432;5.482;2022-08-19T06:31:20;112.75;;;52.85;;
53833;SDS011;39735;51.432;5.482;2022-08-19T06:33:48;93.15;;;51.38;;
53833;SDS011;39735;51.432;5.482;2022-08-19T06:38:42;88.60;;;49.92;;
53833;SDS011;39735;51.432;5.482;2022-08-19T06:41:08;86.93;;;49.25;;
53833;SDS011;39735;51.432;5.482;2022-08-19T06:43:34;84.30;;;47.92;;
53833;SDS011;39735;51.432;5.482;2022-08-19T06:46:01;94.88;;;54.33;;
53833;SDS011;39735;51.432;5.482;2022-08-19T06:48:28;100.20;;;50.35;;
53833;SDS011;39735;51.432;5.482;2022-08-19T06:50:53;90.13;;;49.17;;
53833;SDS011;39735;51.432;5.482;2022-08-19T06:53:19;85.85;;;47.13;;
53833;SDS011;39735;51.432;5.482;2022-08-19T06:55:45;80.40;;;47.50;;
53833;SDS011;39735;51.432;5.482;2022-08-19T06:58:10;83.15;;;46.10;;
53833;SDS011;39735;51.432;5.482;2022-08-19T07:00:36;93.78;;;47.92;;
53833;SDS011;39735;51.432;5.482;2022-08-19T07:03:02;111.00;;;54.10;;
53833;SDS011;39735;51.432;5.482;2022-08-19T07:05:27;84.68;;;45.30;;
53833;SDS011;39735;51.432;5.482;2022-08-19T07:07:53;86.60;;;48.28;;
53833;SDS011;39735;51.432;5.482;2022-08-19T07:10:19;78.28;;;45.25;;
53833;SDS011;39735;51.432;5.482;2022-08-19T07:12:44;96.30;;;46.00;;
53833;SDS011;39735;51.432;5.482;2022-08-19T07:15:10;73.72;;;43.20;;
53833;SDS011;39735;51.432;5.482;2022-08-19T07:17:36;86.00;;;51.70;;
53833;SDS011;39735;51.432;5.482;2022-08-19T07:20:04;85.82;;;44.25;;
53833;SDS011;39735;51.432;5.482;2022-08-19T07:22:32;102.00;;;41.78;;
53833;SDS011;39735;51.432;5.482;2022-08-19T07:25:02;88.75;;;47.10;;
53833;SDS011;39735;51.432;5.482;2022-08-19T07:27:29;70.13;;;39.92;;
53833;SDS011;39735;51.432;5.482;2022-08-19T07:29:54;82.32;;;41.95;;
53833;SDS011;39735;51.432;5.482;2022-08-19T07:32:20;75.90;;;40.38;;
53833;SDS011;39735;51.432;5.482;2022-08-19T07:34:45;66.05;;;39.92;;
53833;SDS011;39735;51.432;5.482;2022-08-19T07:37:11;89.10;;;43.05;;
53833;SDS011;39735;51.432;5.482;2022-08-19T07:39:37;77.88;;;39.00;;
53833;SDS011;39735;51.432;5.482;2022-08-19T07:42:07;74.30;;;38.03;;
53833;SDS011;39735;51.432;5.482;2022-08-19T07:44:34;98.93;;;40.92;;
53833;SDS011;39735;51.432;5.482;2022-08-19T07:47:00;80.68;;;41.50;;
53833;SDS011;39735;51.432;5.482;2022-08-19T07:49:27;83.18;;;40.00;;
53833;SDS011;39735;51.432;5.482;2022-08-19T07:51:58;61.17;;;37.05;;
53833;SDS011;39735;51.432;5.482;2022-08-19T07:54:26;84.80;;;41.42;;
53833;SDS011;39735;51.432;5.482;2022-08-19T07:56:53;97.07;;;39.60;;
53833;SDS011;39735;51.432;5.482;2022-08-19T07:59:19;53.20;;;34.33;;
53833;SDS011;39735;51.432;5.482;2022-08-19T08:01:49;81.90;;;38.35;;
53833;SDS011;39735;51.432;5.482;2022-08-19T08:04:15;70.70;;;37.72;;
53833;SDS011;39735;51.432;5.482;2022-08-19T08:07:00;76.13;;;37.58;;
53833;SDS011;39735;51.432;5.482;2022-08-19T08:09:44;65.97;;;37.38;;
53833;SDS011;39735;51.432;5.482;2022-08-19T08:12:12;74.43;;;37.67;;
53833;SDS011;39735;51.432;5.482;2022-08-19T08:14:45;66.22;;;37.53;;
53833;SDS011;39735;51.432;5.482;2022-08-19T08:17:18;64.35;;;35.15;;
53833;SDS011;39735;51.432;5.482;2022-08-19T08:19:48;69.57;;;34.63;;
53833;SDS011;39735;51.432;5.482;2022-08-19T08:22:21;72.25;;;35.28;;
53833;SDS011;39735;51.432;5.482;2022-08-19T08:25:08;80.53;;;41.03;;
53833;SDS011;39735;51.432;5.482;2022-08-19T08:27:39;81.45;;;35.85;;
53833;SDS011;39735;51.432;5.482;2022-08-19T08:30:10;66.57;;;33.80;;
53833;SDS011;39735;51.432;5.482;2022-08-19T08:32:37;70.57;;;36.00;;
53833;SDS011;39735;51.432;5.482;2022-08-19T08:35:04;61.95;;;36.60;;
53833;SDS011;39735;51.432;5.482;2022-08-19T08:37:31;62.45;;;38.17;;
53833;SDS011;39735;51.432;5.482;2022-08-19T08:39:56;58.40;;;36.53;;
53833;SDS011;39735;51.432;5.482;2022-08-19T08:42:30;59.80;;;34.08;;
53833;SDS011;39735;51.432;5.482;2022-08-19T08:44:59;52.40;;;33.63;;
53833;SDS011;39735;51.432;5.482;2022-08-19T08:47:29;50.42;;;31.70;;
53833;SDS011;39735;51.432;5.482;2022-08-19T08:50:15;65.78;;;35.08;;
53833;SDS011;39735;51.432;5.482;2022-08-19T08:52:52;55.45;;;31.92;;
53833;SDS011;39735;51.432;5.482;2022-08-19T08:55:21;67.43;;;35.75;;
53833;SDS011;39735;51.432;5.482;2022-08-19T09:00:24;60.10;;;34.35;;
53833;SDS011;39735;51.432;5.482;2022-08-19T09:05:35;58.08;;;33.15;;
53833;SDS011;39735;51.432;5.482;2022-08-19T09:17:03;39.13;;;27.17;;
53833;SDS011;39735;51.432;5.482;2022-08-19T09:19:33;43.63;;;27.17;;
53833;SDS011;39735;51.432;5.482;2022-08-19T09:22:20;54.00;;;26.35;;
53833;SDS011;39735;51.432;5.482;2022-08-19T09:24:50;39.38;;;25.92;;
53833;SDS011;39735;51.432;5.482;2022-08-19T09:27:17;49.40;;;24.92;;
53833;SDS011;39735;51.432;5.482;2022-08-19T09:29:43;35.70;;;26.33;;
53833;SDS011;39735;51.432;5.482;2022-08-19T09:32:09;45.80;;;23.38;;
53833;SDS011;39735;51.432;5.482;2022-08-19T09:34:34;53.28;;;25.15;;
53833;SDS011;39735;51.432;5.482;2022-08-19T09:36:59;43.65;;;24.23;;
53833;SDS011;39735;51.432;5.482;2022-08-19T09:39:25;52.45;;;25.25;;
53833;SDS011;39735;51.432;5.482;2022-08-19T09:41:50;47.00;;;23.67;;
53833;SDS011;39735;51.432;5.482;2022-08-19T09:44:16;44.97;;;24.13;;
53833;SDS011;39735;51.432;5.482;2022-08-19T09:46:41;41.28;;;21.90;;
53833;SDS011;39735;51.432;5.482;2022-08-19T09:49:07;44.72;;;24.55;;
53833;SDS011;39735;51.432;5.482;2022-08-19T09:51:32;41.38;;;23.73;;
53833;SDS011;39735;51.432;5.482;2022-08-19T09:53:59;55.13;;;24.17;;
53833;SDS011;39735;51.432;5.482;2022-08-19T09:56:28;36.53;;;21.40;;
53833;SDS011;39735;51.432;5.482;2022-08-19T09:58:55;38.65;;;21.70;;
53833;SDS011;39735;51.432;5.482;2022-08-19T10:01:24;46.55;;;20.50;;
53833;SDS011;39735;51.432;5.482;2022-08-19T10:03:51;48.70;;;21.60;;
53833;SDS011;39735;51.432;5.482;2022-08-19T10:06:19;29.23;;;19.50;;
53833;SDS011;39735;51.432;5.482;2022-08-19T10:08:45;38.03;;;19.30;;
53833;SDS011;39735;51.432;5.482;2022-08-19T10:11:11;40.67;;;20.50;;
53833;SDS011;39735;51.432;5.482;2022-08-19T10:13:39;55.60;;;20.02;;
53833;SDS011;39735;51.432;5.482;2022-08-19T10:16:06;40.47;;;19.60;;
53833;SDS011;39735;51.432;5.482;2022-08-19T10:18:34;33.88;;;18.02;;
53833;SDS011;39735;51.432;5.482;2022-08-19T10:21:08;33.47;;;17.20;;
53833;SDS011;39735;51.432;5.482;2022-08-19T10:23:37;40.85;;;19.42;;
53833;SDS011;39735;51.432;5.482;2022-08-19T10:26:05;49.65;;;19.17;;
53833;SDS011;39735;51.432;5.482;2022-08-19T10:28:32;27.17;;;14.98;;
53833;SDS011;39735;51.432;5.482;2022-08-19T10:31:02;29.27;;;15.73;;
53833;SDS011;39735;51.432;5.482;2022-08-19T10:33:31;36.25;;;17.85;;
53833;SDS011;39735;51.432;5.482;2022-08-19T10:36:07;40.28;;;15.38;;
53833;SDS011;39735;51.432;5.482;2022-08-19T10:38:35;32.00;;;15.02;;
53833;SDS011;39735;51.432;5.482;2022-08-19T10:41:11;35.65;;;14.82;;
53833;SDS011;39735;51.432;5.482;2022-08-19T10:43:39;30.98;;;14.82;;
53833;SDS011;39735;51.432;5.482;2022-08-19T10:46:06;31.02;;;16.42;;
53833;SDS011;39735;51.432;5.482;2022-08-19T10:48:33;28.30;;;15.65;;
53833;SDS011;39735;51.432;5.482;2022-08-19T10:51:02;35.53;;;19.17;;
53833;SDS011;39735;51.432;5.482;2022-08-19T10:53:49;43.80;;;18.63;;
53833;SDS011;39735;51.432;5.482;2022-08-19T10:56:15;25.58;;;15.10;;
53833;SDS011;39735;51.432;5.482;2022-08-19T11:01:25;38.03;;;16.73;;
53833;SDS011;39735;51.432;5.482;2022-08-19T11:03:51;33.08;;;19.17;;
53833;SDS011;39735;51.432;5.482;2022-08-19T11:06:17;52.92;;;21.98;;
53833;SDS011;39735;51.432;5.482;2022-08-19T11:08:43;40.78;;;21.65;;
53833;SDS011;39735;51.432;5.482;2022-08-19T11:11:09;38.15;;;22.30;;
53833;SDS011;39735;51.432;5.482;2022-08-19T11:13:37;49.30;;;21.20;;
53833;SDS011;39735;51.432;5.482;2022-08-19T11:18:31;33.67;;;19.92;;
53833;SDS011;39735;51.432;5.482;2022-08-19T11:21:13;32.08;;;18.85;;
53833;SDS011;39735;51.432;5.482;2022-08-19T11:23:49;40.25;;;22.02;;
53833;SDS011;39735;51.432;5.482;2022-08-19T11:26:16;48.38;;;22.60;;
53833;SDS011;39735;51.432;5.482;2022-08-19T11:28:42;39.92;;;22.08;;
53833;SDS011;39735;51.432;5.482;2022-08-19T11:31:12;36.38;;;22.02;;
53833;SDS011;39735;51.432;5.482;2022-08-19T11:33:39;29.80;;;20.60;;
53833;SDS011;39735;51.432;5.482;2022-08-19T11:36:04;38.03;;;23.75;;
53833;SDS011;39735;51.432;5.482;2022-08-19T11:38:30;33.70;;;22.30;;
53833;SDS011;39735;51.432;5.482;2022-08-19T11:40:59;40.20;;;20.30;;
53833;SDS011;39735;51.432;5.482;2022-08-19T11:43:26;39.08;;;22.38;;
53833;SDS011;39735;51.432;5.482;2022-08-19T11:45:53;38.97;;;24.17;;
53833;SDS011;39735;51.432;5.482;2022-08-19T11:48:19;37.85;;;22.85;;
53833;SDS011;39735;51.432;5.482;2022-08-19T11:50:48;43.08;;;22.48;;
53833;SDS011;39735;51.432;5.482;2022-08-19T11:53:14;40.60;;;23.95;;
53833;SDS011;39735;51.432;5.482;2022-08-19T11:55:41;61.92;;;29.08;;
53833;SDS011;39735;51.432;5.482;2022-08-19T11:58:07;37.85;;;22.90;;
53833;SDS011;39735;51.432;5.482;2022-08-19T12:00:33;41.80;;;26.27;;
53833;SDS011;39735;51.432;5.482;2022-08-19T12:03:00;54.30;;;28.27;;
53833;SDS011;39735;51.432;5.482;2022-08-19T12:05:26;47.05;;;28.90;;
53833;SDS011;39735;51.432;5.482;2022-08-19T12:07:51;52.22;;;26.52;;
53833;SDS011;39735;51.432;5.482;2022-08-19T12:10:17;45.78;;;25.38;;
53833;SDS011;39735;51.432;5.482;2022-08-19T12:12:42;50.25;;;24.60;;
53833;SDS011;39735;51.432;5.482;2022-08-19T12:15:10;48.83;;;24.10;;
53833;SDS011;39735;51.432;5.482;2022-08-19T12:17:37;39.55;;;24.10;;
53833;SDS011;39735;51.432;5.482;2022-08-19T12:20:02;38.15;;;24.13;;
53833;SDS011;39735;51.432;5.482;2022-08-19T12:22:29;41.15;;;23.02;;
53833;SDS011;39735;51.432;5.482;2022-08-19T12:24:54;42.00;;;24.98;;
53833;SDS011;39735;51.432;5.482;2022-08-19T12:27:20;42.63;;;24.23;;
53833;SDS011;39735;51.432;5.482;2022-08-19T12:29:46;33.85;;;22.52;;
53833;SDS011;39735;51.432;5.482;2022-08-19T12:32:11;33.63;;;24.23;;
53833;SDS011;39735;51.432;5.482;2022-08-19T12:34:37;38.80;;;24.60;;
53833;SDS011;39735;51.432;5.482;2022-08-19T12:37:04;40.15;;;25.77;;
53833;SDS011;39735;51.432;5.482;2022-08-19T12:39:33;40.08;;;23.70;;
53833;SDS011;39735;51.432;5.482;2022-08-19T12:42:03;40.95;;;23.33;;
53833;SDS011;39735;51.432;5.482;2022-08-19T12:44:29;32.17;;;19.20;;
53833;SDS011;39735;51.432;5.482;2022-08-19T12:46:56;29.90;;;20.75;;
53833;SDS011;39735;51.432;5.482;2022-08-19T12:49:22;36.00;;;23.40;;
53833;SDS011;39735;51.432;5.482;2022-08-19T12:51:47;40.03;;;23.67;;
53833;SDS011;39735;51.432;5.482;2022-08-19T12:54:14;33.55;;;21.55;;
53833;SDS011;39735;51.432;5.482;2022-08-19T12:56:39;31.98;;;20.92;;
53833;SDS011;39735;51.432;5.482;2022-08-19T12:59:06;36.70;;;19.30;;
53833;SDS011;39735;51.432;5.482;2022-08-19T13:01:33;29.80;;;20.02;;
53833;SDS011;39735;51.432;5.482;2022-08-19T13:03:58;32.65;;;20.77;;
53833;SDS011;39735;51.432;5.482;2022-08-19T13:06:25;29.90;;;18.25;;
53833;SDS011;39735;51.432;5.482;2022-08-19T13:08:51;21.17;;;14.20;;
53833;SDS011;39735;51.432;5.482;2022-08-19T13:11:20;19.10;;;14.05;;
53833;SDS011;39735;51.432;5.482;2022-08-19T13:13:49;32.00;;;12.95;;
53833;SDS011;39735;51.432;5.482;2022-08-19T13:16:15;17.15;;;13.07;;
53833;SDS011;39735;51.432;5.482;2022-08-19T13:18:42;28.13;;;11.90;;
53833;SDS011;39735;51.432;5.482;2022-08-19T13:21:10;19.48;;;12.25;;
53833;SDS011;39735;51.432;5.482;2022-08-19T13:23:37;20.85;;;12.23;;
53833;SDS011;39735;51.432;5.482;2022-08-19T13:26:04;23.23;;;12.63;;
53833;SDS011;39735;51.432;5.482;2022-08-19T13:28:32;29.17;;;13.50;;
53833;SDS011;39735;51.432;5.482;2022-08-19T13:31:17;36.20;;;14.68;;
53833;SDS011;39735;51.432;5.482;2022-08-19T13:34:02;15.77;;;12.15;;
53833;SDS011;39735;51.432;5.482;2022-08-19T13:36:27;17.70;;;12.82;;
53833;SDS011;39735;51.432;5.482;2022-08-19T13:38:52;30.00;;;13.10;;
53833;SDS011;39735;51.432;5.482;2022-08-19T13:41:18;19.65;;;13.18;;
53833;SDS011;39735;51.432;5.482;2022-08-19T13:43:44;16.75;;;12.05;;
53833;SDS011;39735;51.432;5.482;2022-08-19T13:46:10;15.00;;;12.70;;
53833;SDS011;39735;51.432;5.482;2022-08-19T13:48:38;17.02;;;12.27;;
53833;SDS011;39735;51.432;5.482;2022-08-19T13:51:04;19.98;;;13.20;;
53833;SDS011;39735;51.432;5.482;2022-08-19T13:53:30;14.32;;;11.55;;
53833;SDS011;39735;51.432;5.482;2022-08-19T13:55:55;18.25;;;12.00;;
53833;SDS011;39735;51.432;5.482;2022-08-19T13:58:21;15.52;;;10.70;;
53833;SDS011;39735;51.432;5.482;2022-08-19T14:00:47;30.67;;;12.27;;
53833;SDS011;39735;51.432;5.482;2022-08-19T14:03:14;17.20;;;10.95;;
53833;SDS011;39735;51.432;5.482;2022-08-19T14:05:41;13.55;;;9.77;;
53833;SDS011;39735;51.432;5.482;2022-08-19T14:08:06;20.48;;;11.63;;
53833;SDS011;39735;51.432;5.482;2022-08-19T14:10:32;26.05;;;12.88;;
53833;SDS011;39735;51.432;5.482;2022-08-19T14:12:59;18.77;;;11.57;;
53833;SDS011;39735;51.432;5.482;2022-08-19T14:15:27;19.98;;;12.00;;
53833;SDS011;39735;51.432;5.482;2022-08-19T14:17:53;20.17;;;12.07;;
53833;SDS011;39735;51.432;5.482;2022-08-19T14:20:19;23.95;;;13.52;;
53833;SDS011;39735;51.432;5.482;2022-08-19T14:22:46;21.02;;;11.05;;
53833;SDS011;39735;51.432;5.482;2022-08-19T14:25:14;14.95;;;9.82;;
53833;SDS011;39735;51.432;5.482;2022-08-19T14:27:42;19.75;;;8.80;;
53833;SDS011;39735;51.432;5.482;2022-08-19T14:30:09;18.92;;;9.25;;
53833;SDS011;39735;51.432;5.482;2022-08-19T14:32:36;15.45;;;8.93;;
53833;SDS011;39735;51.432;5.482;2022-08-19T14:35:02;18.70;;;9.25;;
53833;SDS011;39735;51.432;5.482;2022-08-19T14:37:29;11.18;;;7.53;;
53833;SDS011;39735;51.432;5.482;2022-08-19T14:39:54;8.05;;;7.45;;
53833;SDS011;39735;51.432;5.482;2022-08-19T14:42:20;10.57;;;7.60;;
53833;SDS011;39735;51.432;5.482;2022-08-19T14:44:45;12.20;;;8.77;;
53833;SDS011;39735;51.432;5.482;2022-08-19T14:47:10;18.08;;;8.90;;